sensor_id;sensor_type;location;lat;lon;timestamp;temperature;humidity
27276;DHT22;14772;47.398;8.080;2022-11-18T00:03:31;11.20;99.90
27276;DHT22;14772;47.398;8.080;2022-11-18T00:08:29;11.10;99.90
27276;DHT22;14772;47.398;8.080;2022-11-18T00:13:26;11.30;99.90
27276;DHT22;14772;47.398;8.080;2022-11-18T00:18:23;11.40;99.90
27276;DHT22;14772;47.398;8.080;2022-11-18T00:23:20;11.20;99.90
27276;DHT22;14772;47.398;8.080;2022-11-18T00:28:17;10.90;99.90
27276;DHT22;14772;47.398;8.080;2022-11-18T00:33:15;11.10;99.90
27276;DHT22;14772;47.398;8.080;2022-11-18T00:38:12;11.20;99.90
27276;DHT22;14772;47.398;8.080;2022-11-18T00:43:09;11.20;99.90
27276;DHT22;14772;47.398;8.080;2022-11-18T00:48:06;11.30;99.90
27276;DHT22;14772;47.398;8.080;2022-11-18T00:53:03;11.30;99.90
27276;DHT22;14772;47.398;8.080;2022-11-18T00:58:01;11.10;99.90
27276;DHT22;14772;47.398;8.080;2022-11-18T01:02:58;11.00;99.90
27276;DHT22;14772;47.398;8.080;2022-11-18T01:07:55;10.80;99.90
27276;DHT22;14772;47.398;8.080;2022-11-18T01:12:52;10.80;99.90
27276;DHT22;14772;47.398;8.080;2022-11-18T01:17:49;11.00;99.90
27276;DHT22;14772;47.398;8.080;2022-11-18T01:22:47;11.20;99.90
27276;DHT22;14772;47.398;8.080;2022-11-18T01:27:44;11.00;99.90
27276;DHT22;14772;47.398;8.080;2022-11-18T01:32:41;11.10;99.90
27276;DHT22;14772;47.398;8.080;2022-11-18T01:37:39;11.10;99.90
27276;DHT22;14772;47.398;8.080;2022-11-18T01:42:36;11.20;99.90
27276;DHT22;14772;47.398;8.080;2022-11-18T01:47:36;11.20;99.90
27276;DHT22;14772;47.398;8.080;2022-11-18T01:52:35;11.20;99.90
27276;DHT22;14772;47.398;8.080;2022-11-18T01:57:32;11.30;99.90
27276;DHT22;14772;47.398;8.080;2022-11-18T02:02:32;11.20;99.90
27276;DHT22;14772;47.398;8.080;2022-11-18T02:07:32;11.20;99.90
27276;DHT22;14772;47.398;8.080;2022-11-18T02:12:30;11.20;99.90
27276;DHT22;14772;47.398;8.080;2022-11-18T02:17:35;11.10;99.90
27276;DHT22;14772;47.398;8.080;2022-11-18T02:22:53;11.20;99.90
27276;DHT22;14772;47.398;8.080;2022-11-18T02:28:14;11.10;99.90
27276;DHT22;14772;47.398;8.080;2022-11-18T02:33:14;11.10;99.90
27276;DHT22;14772;47.398;8.080;2022-11-18T02:38:15;11.00;99.90
27276;DHT22;14772;47.398;8.080;2022-11-18T02:43:15;11.00;99.90
27276;DHT22;14772;47.398;8.080;2022-11-18T02:48:15;11.00;99.90
27276;DHT22;14772;47.398;8.080;2022-11-18T02:53:17;11.00;99.90
27276;DHT22;14772;47.398;8.080;2022-11-18T02:58:17;11.00;99.90
27276;DHT22;14772;47.398;8.080;2022-11-18T03:03:24;11.00;99.90
27276;DHT22;14772;47.398;8.080;2022-11-18T03:08:24;11.00;99.90
27276;DHT22;14772;47.398;8.080;2022-11-18T03:13:25;11.10;99.90
27276;DHT22;14772;47.398;8.080;2022-11-18T03:18:26;11.00;99.90
27276;DHT22;14772;47.398;8.080;2022-11-18T03:23:27;11.10;99.90
27276;DHT22;14772;47.398;8.080;2022-11-18T03:28:28;11.00;99.90
27276;DHT22;14772;47.398;8.080;2022-11-18T03:33:30;11.00;99.90
27276;DHT22;14772;47.398;8.080;2022-11-18T03:38:29;11.00;99.90
27276;DHT22;14772;47.398;8.080;2022-11-18T03:43:30;11.00;99.90
27276;DHT22;14772;47.398;8.080;2022-11-18T03:48:32;10.90;99.90
27276;DHT22;14772;47.398;8.080;2022-11-18T03:53:32;11.00;99.90
27276;DHT22;14772;47.398;8.080;2022-11-18T03:58:33;11.00;99.90
27276;DHT22;14772;47.398;8.080;2022-11-18T04:03:31;10.90;99.90
27276;DHT22;14772;47.398;8.080;2022-11-18T04:08:33;10.80;99.90
27276;DHT22;14772;47.398;8.080;2022-11-18T04:13:31;10.80;99.90
27276;DHT22;14772;47.398;8.080;2022-11-18T04:18:29;10.80;99.90
27276;DHT22;14772;47.398;8.080;2022-11-18T04:23:26;10.70;99.90
27276;DHT22;14772;47.398;8.080;2022-11-18T04:28:23;10.70;99.90
27276;DHT22;14772;47.398;8.080;2022-11-18T04:33:20;10.70;99.90
27276;DHT22;14772;47.398;8.080;2022-11-18T04:38:17;10.70;99.90
27276;DHT22;14772;47.398;8.080;2022-11-18T04:43:15;10.70;99.90
27276;DHT22;14772;47.398;8.080;2022-11-18T04:48:12;10.50;99.90
27276;DHT22;14772;47.398;8.080;2022-11-18T04:53:09;10.50;99.90
27276;DHT22;14772;47.398;8.080;2022-11-18T04:58:06;9.90;99.90
27276;DHT22;14772;47.398;8.080;2022-11-18T05:03:03;9.70;99.90
27276;DHT22;14772;47.398;8.080;2022-11-18T05:08:01;10.00;99.90
27276;DHT22;14772;47.398;8.080;2022-11-18T05:12:58;9.90;99.90
27276;DHT22;14772;47.398;8.080;2022-11-18T05:17:55;9.90;99.90
27276;DHT22;14772;47.398;8.080;2022-11-18T05:22:52;9.70;99.90
27276;DHT22;14772;47.398;8.080;2022-11-18T05:27:49;9.30;99.90
27276;DHT22;14772;47.398;8.080;2022-11-18T05:32:48;9.30;99.90
27276;DHT22;14772;47.398;8.080;2022-11-18T05:37:46;9.40;99.90
27276;DHT22;14772;47.398;8.080;2022-11-18T05:42:43;9.60;99.90
27276;DHT22;14772;47.398;8.080;2022-11-18T05:47:40;9.60;99.90
27276;DHT22;14772;47.398;8.080;2022-11-18T05:52:37;9.70;99.90
27276;DHT22;14772;47.398;8.080;2022-11-18T05:57:34;9.80;99.90
27276;DHT22;14772;47.398;8.080;2022-11-18T06:02:32;9.90;99.90
27276;DHT22;14772;47.398;8.080;2022-11-18T06:07:31;9.90;99.90
27276;DHT22;14772;47.398;8.080;2022-11-18T06:12:33;10.00;99.90
27276;DHT22;14772;47.398;8.080;2022-11-18T06:17:34;10.10;99.90
27276;DHT22;14772;47.398;8.080;2022-11-18T06:22:31;10.10;99.90
27276;DHT22;14772;47.398;8.080;2022-11-18T06:27:30;10.10;99.90
27276;DHT22;14772;47.398;8.080;2022-11-18T06:32:28;10.10;99.90
27276;DHT22;14772;47.398;8.080;2022-11-18T06:37:25;10.20;99.90
27276;DHT22;14772;47.398;8.080;2022-11-18T06:42:22;10.30;99.90
27276;DHT22;14772;47.398;8.080;2022-11-18T06:47:19;10.10;99.90
27276;DHT22;14772;47.398;8.080;2022-11-18T06:52:16;10.20;99.90
27276;DHT22;14772;47.398;8.080;2022-11-18T06:57:13;10.20;99.90
27276;DHT22;14772;47.398;8.080;2022-11-18T07:02:11;10.30;99.90
27276;DHT22;14772;47.398;8.080;2022-11-18T07:07:08;10.30;99.90
27276;DHT22;14772;47.398;8.080;2022-11-18T07:12:05;10.30;99.90
27276;DHT22;14772;47.398;8.080;2022-11-18T07:17:02;10.30;99.90
27276;DHT22;14772;47.398;8.080;2022-11-18T07:22:00;10.40;99.90
27276;DHT22;14772;47.398;8.080;2022-11-18T07:26:57;10.30;99.90
27276;DHT22;14772;47.398;8.080;2022-11-18T07:31:55;10.20;99.90
27276;DHT22;14772;47.398;8.080;2022-11-18T07:36:52;10.20;99.90
27276;DHT22;14772;47.398;8.080;2022-11-18T07:41:49;10.10;99.90
27276;DHT22;14772;47.398;8.080;2022-11-18T07:46:46;10.10;99.90
27276;DHT22;14772;47.398;8.080;2022-11-18T07:51:43;10.10;99.90
27276;DHT22;14772;47.398;8.080;2022-11-18T07:56:40;10.20;99.90
27276;DHT22;14772;47.398;8.080;2022-11-18T08:01:38;10.20;99.90
27276;DHT22;14772;47.398;8.080;2022-11-18T08:06:35;10.10;99.90
27276;DHT22;14772;47.398;8.080;2022-11-18T08:11:33;10.20;99.90
27276;DHT22;14772;47.398;8.080;2022-11-18T08:16:30;10.20;99.90
27276;DHT22;14772;47.398;8.080;2022-11-18T08:21:27;10.20;99.90
27276;DHT22;14772;47.398;8.080;2022-11-18T08:26:25;10.10;99.90
27276;DHT22;14772;47.398;8.080;2022-11-18T08:31:24;10.10;99.90
27276;DHT22;14772;47.398;8.080;2022-11-18T08:36:23;10.10;99.90
27276;DHT22;14772;47.398;8.080;2022-11-18T08:41:26;10.10;99.90
27276;DHT22;14772;47.398;8.080;2022-11-18T08:46:23;10.10;99.90
27276;DHT22;14772;47.398;8.080;2022-11-18T08:51:21;10.10;99.90
27276;DHT22;14772;47.398;8.080;2022-11-18T08:56:21;10.20;99.90
27276;DHT22;14772;47.398;8.080;2022-11-18T09:01:18;10.30;99.90
27276;DHT22;14772;47.398;8.080;2022-11-18T09:06:17;10.30;99.90
27276;DHT22;14772;47.398;8.080;2022-11-18T09:11:16;10.30;99.90
27276;DHT22;14772;47.398;8.080;2022-11-18T09:16:14;10.30;99.90
27276;DHT22;14772;47.398;8.080;2022-11-18T09:21:11;10.40;99.90
27276;DHT22;14772;47.398;8.080;2022-11-18T09:26:10;10.40;99.90
27276;DHT22;14772;47.398;8.080;2022-11-18T09:31:09;10.40;99.90
27276;DHT22;14772;47.398;8.080;2022-11-18T09:36:12;10.50;99.90
27276;DHT22;14772;47.398;8.080;2022-11-18T09:41:21;10.50;99.90
27276;DHT22;14772;47.398;8.080;2022-11-18T09:46:23;10.50;99.90
27276;DHT22;14772;47.398;8.080;2022-11-18T09:51:23;10.50;99.90
27276;DHT22;14772;47.398;8.080;2022-11-18T09:56:21;10.40;99.90
27276;DHT22;14772;47.398;8.080;2022-11-18T10:01:19;10.50;99.90
27276;DHT22;14772;47.398;8.080;2022-11-18T10:06:20;10.40;99.90
27276;DHT22;14772;47.398;8.080;2022-11-18T10:11:19;10.40;99.90
27276;DHT22;14772;47.398;8.080;2022-11-18T10:16:26;10.40;99.90
27276;DHT22;14772;47.398;8.080;2022-11-18T10:21:30;10.30;99.90
27276;DHT22;14772;47.398;8.080;2022-11-18T10:26:35;10.20;99.90
27276;DHT22;14772;47.398;8.080;2022-11-18T10:31:36;10.10;99.90
27276;DHT22;14772;47.398;8.080;2022-11-18T10:36:33;10.10;99.90
27276;DHT22;14772;47.398;8.080;2022-11-18T10:41:36;10.00;99.90
27276;DHT22;14772;47.398;8.080;2022-11-18T10:46:35;10.00;99.90
27276;DHT22;14772;47.398;8.080;2022-11-18T10:51:32;10.00;99.90
27276;DHT22;14772;47.398;8.080;2022-11-18T10:56:33;10.00;99.90
27276;DHT22;14772;47.398;8.080;2022-11-18T11:01:32;10.00;99.90
27276;DHT22;14772;47.398;8.080;2022-11-18T11:06:32;9.90;99.90
27276;DHT22;14772;47.398;8.080;2022-11-18T11:11:31;10.00;99.90
27276;DHT22;14772;47.398;8.080;2022-11-18T11:16:30;10.00;99.90
27276;DHT22;14772;47.398;8.080;2022-11-18T11:21:29;10.10;99.90
27276;DHT22;14772;47.398;8.080;2022-11-18T11:26:47;10.10;99.90
27276;DHT22;14772;47.398;8.080;2022-11-18T11:31:48;10.10;99.90
27276;DHT22;14772;47.398;8.080;2022-11-18T11:36:50;10.10;99.90
27276;DHT22;14772;47.398;8.080;2022-11-18T11:41:52;10.20;99.90
27276;DHT22;14772;47.398;8.080;2022-11-18T11:46:56;10.30;99.90
27276;DHT22;14772;47.398;8.080;2022-11-18T11:51:55;10.40;99.90
27276;DHT22;14772;47.398;8.080;2022-11-18T11:56:57;10.40;99.90
27276;DHT22;14772;47.398;8.080;2022-11-18T12:02:06;10.60;99.90
27276;DHT22;14772;47.398;8.080;2022-11-18T12:07:06;10.60;99.90
27276;DHT22;14772;47.398;8.080;2022-11-18T12:12:07;10.60;99.90
27276;DHT22;14772;47.398;8.080;2022-11-18T12:17:09;10.60;99.90
27276;DHT22;14772;47.398;8.080;2022-11-18T12:22:06;10.60;99.90
27276;DHT22;14772;47.398;8.080;2022-11-18T12:27:10;10.60;99.90
27276;DHT22;14772;47.398;8.080;2022-11-18T12:32:29;10.70;99.90
27276;DHT22;14772;47.398;8.080;2022-11-18T12:37:55;10.60;99.90
27276;DHT22;14772;47.398;8.080;2022-11-18T12:42:45;10.70;99.90
27276;DHT22;14772;47.398;8.080;2022-11-18T12:47:58;10.60;99.90
27276;DHT22;14772;47.398;8.080;2022-11-18T12:52:55;10.60;99.90
27276;DHT22;14772;47.398;8.080;2022-11-18T12:57:52;10.60;99.90
27276;DHT22;14772;47.398;8.080;2022-11-18T13:02:54;10.60;99.90
27276;DHT22;14772;47.398;8.080;2022-11-18T13:07:53;10.60;99.90
27276;DHT22;14772;47.398;8.080;2022-11-18T13:12:53;10.60;99.90
27276;DHT22;14772;47.398;8.080;2022-11-18T13:17:52;10.80;99.90
27276;DHT22;14772;47.398;8.080;2022-11-18T13:22:52;10.80;99.90
27276;DHT22;14772;47.398;8.080;2022-11-18T13:27:53;10.90;99.90
27276;DHT22;14772;47.398;8.080;2022-11-18T13:32:52;10.90;99.90
27276;DHT22;14772;47.398;8.080;2022-11-18T13:37:51;10.90;99.90
27276;DHT22;14772;47.398;8.080;2022-11-18T13:42:49;10.90;99.90
27276;DHT22;14772;47.398;8.080;2022-11-18T13:47:48;11.00;99.90
27276;DHT22;14772;47.398;8.080;2022-11-18T13:52:51;11.00;99.90
27276;DHT22;14772;47.398;8.080;2022-11-18T13:57:51;11.10;99.90
27276;DHT22;14772;47.398;8.080;2022-11-18T14:02:54;11.00;99.90
27276;DHT22;14772;47.398;8.080;2022-11-18T14:08:04;11.10;99.90
27276;DHT22;14772;47.398;8.080;2022-11-18T14:13:01;11.20;99.90
27276;DHT22;14772;47.398;8.080;2022-11-18T14:18:00;11.20;99.90
27276;DHT22;14772;47.398;8.080;2022-11-18T14:22:59;11.20;99.90
27276;DHT22;14772;47.398;8.080;2022-11-18T14:28:08;11.10;99.90
27276;DHT22;14772;47.398;8.080;2022-11-18T14:33:17;11.20;99.90
27276;DHT22;14772;47.398;8.080;2022-11-18T14:38:17;11.20;99.90
27276;DHT22;14772;47.398;8.080;2022-11-18T14:43:14;11.20;99.90
27276;DHT22;14772;47.398;8.080;2022-11-18T14:48:12;11.30;99.90
27276;DHT22;14772;47.398;8.080;2022-11-18T14:53:12;11.10;99.90
27276;DHT22;14772;47.398;8.080;2022-11-18T14:58:12;11.10;99.90
27276;DHT22;14772;47.398;8.080;2022-11-18T15:03:09;11.00;99.90
27276;DHT22;14772;47.398;8.080;2022-11-18T15:08:07;11.10;99.90
27276;DHT22;14772;47.398;8.080;2022-11-18T15:13:04;10.80;99.90
27276;DHT22;14772;47.398;8.080;2022-11-18T15:18:01;10.90;99.90
27276;DHT22;14772;47.398;8.080;2022-11-18T15:22:59;11.00;99.90
27276;DHT22;14772;47.398;8.080;2022-11-18T15:27:56;11.00;99.90
27276;DHT22;14772;47.398;8.080;2022-11-18T15:32:53;11.00;99.90
27276;DHT22;14772;47.398;8.080;2022-11-18T15:37:50;11.00;99.90
27276;DHT22;14772;47.398;8.080;2022-11-18T15:42:47;10.90;99.90
27276;DHT22;14772;47.398;8.080;2022-11-18T15:47:44;10.90;99.90
27276;DHT22;14772;47.398;8.080;2022-11-18T15:52:42;10.90;99.90
27276;DHT22;14772;47.398;8.080;2022-11-18T15:57:39;10.90;99.90
27276;DHT22;14772;47.398;8.080;2022-11-18T16:02:37;10.90;99.90
27276;DHT22;14772;47.398;8.080;2022-11-18T16:07:53;10.90;99.90
27276;DHT22;14772;47.398;8.080;2022-11-18T16:12:50;10.80;99.90
27276;DHT22;14772;47.398;8.080;2022-11-18T16:17:47;10.80;99.90
27276;DHT22;14772;47.398;8.080;2022-11-18T16:22:45;10.80;99.90
27276;DHT22;14772;47.398;8.080;2022-11-18T16:27:42;10.80;99.90
27276;DHT22;14772;47.398;8.080;2022-11-18T16:32:40;10.70;99.90
27276;DHT22;14772;47.398;8.080;2022-11-18T16:37:37;10.70;99.90
27276;DHT22;14772;47.398;8.080;2022-11-18T16:42:34;10.70;99.90
27276;DHT22;14772;47.398;8.080;2022-11-18T16:47:31;10.70;99.90
27276;DHT22;14772;47.398;8.080;2022-11-18T16:52:30;10.60;99.90
27276;DHT22;14772;47.398;8.080;2022-11-18T16:57:27;10.70;99.90
27276;DHT22;14772;47.398;8.080;2022-11-18T17:02:24;10.60;99.90
27276;DHT22;14772;47.398;8.080;2022-11-18T17:07:21;10.60;99.90
27276;DHT22;14772;47.398;8.080;2022-11-18T17:12:18;10.60;99.90
27276;DHT22;14772;47.398;8.080;2022-11-18T17:17:16;10.70;99.90
27276;DHT22;14772;47.398;8.080;2022-11-18T17:22:13;10.70;99.90
27276;DHT22;14772;47.398;8.080;2022-11-18T17:27:10;10.60;99.90
27276;DHT22;14772;47.398;8.080;2022-11-18T17:32:07;10.60;99.90
27276;DHT22;14772;47.398;8.080;2022-11-18T17:37:04;10.60;99.90
27276;DHT22;14772;47.398;8.080;2022-11-18T17:42:01;10.60;99.90
27276;DHT22;14772;47.398;8.080;2022-11-18T17:46:59;10.60;99.90
27276;DHT22;14772;47.398;8.080;2022-11-18T17:51:56;10.60;99.90
27276;DHT22;14772;47.398;8.080;2022-11-18T17:56:53;10.60;99.90
27276;DHT22;14772;47.398;8.080;2022-11-18T18:01:50;10.60;99.90
27276;DHT22;14772;47.398;8.080;2022-11-18T18:06:49;10.50;99.90
27276;DHT22;14772;47.398;8.080;2022-11-18T18:11:46;10.50;99.90
27276;DHT22;14772;47.398;8.080;2022-11-18T18:16:45;10.50;99.90
27276;DHT22;14772;47.398;8.080;2022-11-18T18:21:42;10.50;99.90
27276;DHT22;14772;47.398;8.080;2022-11-18T18:26:40;10.50;99.90
27276;DHT22;14772;47.398;8.080;2022-11-18T18:31:37;10.30;99.90
27276;DHT22;14772;47.398;8.080;2022-11-18T18:36:34;10.20;99.90
27276;DHT22;14772;47.398;8.080;2022-11-18T18:41:31;10.10;99.90
27276;DHT22;14772;47.398;8.080;2022-11-18T18:46:29;10.20;99.90
27276;DHT22;14772;47.398;8.080;2022-11-18T18:51:27;10.10;99.90
27276;DHT22;14772;47.398;8.080;2022-11-18T18:56:25;10.00;99.90
27276;DHT22;14772;47.398;8.080;2022-11-18T19:01:22;10.10;99.90
27276;DHT22;14772;47.398;8.080;2022-11-18T19:06:21;10.00;99.90
27276;DHT22;14772;47.398;8.080;2022-11-18T19:11:18;10.10;99.90
27276;DHT22;14772;47.398;8.080;2022-11-18T19:16:16;10.00;99.90
27276;DHT22;14772;47.398;8.080;2022-11-18T19:21:13;10.00;99.90
27276;DHT22;14772;47.398;8.080;2022-11-18T19:26:10;9.90;99.90
27276;DHT22;14772;47.398;8.080;2022-11-18T19:31:08;9.90;99.90
27276;DHT22;14772;47.398;8.080;2022-11-18T19:36:07;9.80;99.90
27276;DHT22;14772;47.398;8.080;2022-11-18T19:41:06;9.80;99.90
27276;DHT22;14772;47.398;8.080;2022-11-18T19:46:04;9.70;99.90
27276;DHT22;14772;47.398;8.080;2022-11-18T19:51:07;9.70;99.90
27276;DHT22;14772;47.398;8.080;2022-11-18T19:56:06;9.70;99.90
27276;DHT22;14772;47.398;8.080;2022-11-18T20:01:15;9.60;99.90
27276;DHT22;14772;47.398;8.080;2022-11-18T20:06:13;9.60;99.90
27276;DHT22;14772;47.398;8.080;2022-11-18T20:11:12;9.60;99.90
27276;DHT22;14772;47.398;8.080;2022-11-18T20:16:11;9.60;99.90
27276;DHT22;14772;47.398;8.080;2022-11-18T20:21:09;9.60;99.90
27276;DHT22;14772;47.398;8.080;2022-11-18T20:26:09;9.70;99.90
27276;DHT22;14772;47.398;8.080;2022-11-18T20:31:08;9.60;99.90
27276;DHT22;14772;47.398;8.080;2022-11-18T20:36:11;9.60;99.90
27276;DHT22;14772;47.398;8.080;2022-11-18T20:41:10;9.60;99.90
27276;DHT22;14772;47.398;8.080;2022-11-18T20:46:13;9.60;99.90
27276;DHT22;14772;47.398;8.080;2022-11-18T20:51:12;9.50;99.90
27276;DHT22;14772;47.398;8.080;2022-11-18T20:56:11;9.50;99.90
27276;DHT22;14772;47.398;8.080;2022-11-18T21:01:10;9.40;99.90
27276;DHT22;14772;47.398;8.080;2022-11-18T21:06:09;9.50;99.90
27276;DHT22;14772;47.398;8.080;2022-11-18T21:11:09;9.50;99.90
27276;DHT22;14772;47.398;8.080;2022-11-18T21:16:07;9.40;99.90
27276;DHT22;14772;47.398;8.080;2022-11-18T21:21:04;9.40;99.90
27276;DHT22;14772;47.398;8.080;2022-11-18T21:26:02;9.30;99.90
27276;DHT22;14772;47.398;8.080;2022-11-18T21:30:59;9.40;99.90
27276;DHT22;14772;47.398;8.080;2022-11-18T21:35:58;9.40;99.90
27276;DHT22;14772;47.398;8.080;2022-11-18T21:41:01;9.40;99.90
27276;DHT22;14772;47.398;8.080;2022-11-18T21:46:00;9.40;99.90
27276;DHT22;14772;47.398;8.080;2022-11-18T21:50:58;9.50;99.90
27276;DHT22;14772;47.398;8.080;2022-11-18T21:55:59;9.40;99.90
27276;DHT22;14772;47.398;8.080;2022-11-18T22:01:04;9.50;99.90
27276;DHT22;14772;47.398;8.080;2022-11-18T22:06:01;9.50;99.90
27276;DHT22;14772;47.398;8.080;2022-11-18T22:10:58;9.50;99.90
27276;DHT22;14772;47.398;8.080;2022-11-18T22:15:59;9.50;99.90
27276;DHT22;14772;47.398;8.080;2022-11-18T22:20:58;9.40;99.90
27276;DHT22;14772;47.398;8.080;2022-11-18T22:25:59;9.50;99.90
27276;DHT22;14772;47.398;8.080;2022-11-18T22:31:01;9.40;99.90
27276;DHT22;14772;47.398;8.080;2022-11-18T22:35:59;9.40;99.90
27276;DHT22;14772;47.398;8.080;2022-11-18T22:41:00;9.40;99.90
27276;DHT22;14772;47.398;8.080;2022-11-18T22:46:03;9.30;99.90
27276;DHT22;14772;47.398;8.080;2022-11-18T22:51:02;9.20;99.90
27276;DHT22;14772;47.398;8.080;2022-11-18T22:56:04;9.10;99.90
27276;DHT22;14772;47.398;8.080;2022-11-18T23:01:03;9.30;99.90
27276;DHT22;14772;47.398;8.080;2022-11-18T23:06:01;9.40;99.90
27276;DHT22;14772;47.398;8.080;2022-11-18T23:11:01;9.40;99.90
27276;DHT22;14772;47.398;8.080;2022-11-18T23:15:58;9.30;99.90
27276;DHT22;14772;47.398;8.080;2022-11-18T23:20:59;9.30;99.90
27276;DHT22;14772;47.398;8.080;2022-11-18T23:26:02;9.10;99.90
27276;DHT22;14772;47.398;8.080;2022-11-18T23:31:06;9.00;99.90
27276;DHT22;14772;47.398;8.080;2022-11-18T23:36:05;9.10;99.90
27276;DHT22;14772;47.398;8.080;2022-11-18T23:41:05;8.90;99.90
27276;DHT22;14772;47.398;8.080;2022-11-18T23:46:06;8.60;99.90
27276;DHT22;14772;47.398;8.080;2022-11-18T23:51:05;8.60;99.90
27276;DHT22;14772;47.398;8.080;2022-11-18T23:56:05;8.90;99.90
